KLAX/LAX METAR and TAF weather

Enter ICAO airport designator
Station Type Date Time Source
KLAX METAR 2019/12/08 06:53 UTC NOAA

KLAX 080653Z 00000KT 10SM SCT018 BKN028 BKN055 17/14 A3010 RMK AO2 SLP190 T01670139


Station Type Date Time Source
KLAX Decoded METAR 2019/12/08 06:53 UTC NOAA

LOS ANGELES INTERNTL AIRPORT, CA, United States (KLAX) 33-56N 118-23W 46M
Dec 08, 2019 - 01:53 AM EST / 2019.12.08 0653 UTC
Wind: Calm:0
Visibility: 10 mile(s):0
Sky conditions: mostly cloudy
Temperature: 62.1 F (16.7 C)
Dew Point: 57.0 F (13.9 C)
Relative Humidity: 83%
Pressure (altimeter): 30.1 in. Hg (1019 hPa)
ob: KLAX 080653Z 00000KT 10SM SCT018 BKN028 BKN055 17/14 A3010 RMK AO2 SLP190 T01670139
cycle: 7

Station Type Date Time Source
KLAX TAF 2019/12/08 07:09 UTC NOAA

TAF
AMD KLAX 080705Z 0807/0912 VRB03KT P6SM VCSH SCT012 BKN025 OVC050
FM080900 20005KT 4SM -RA BR SCT008 OVC015
FM081200 12005KT 3SM -RA BR BKN008 OVC015
FM081600 25006KT 4SM -RA BR BKN012 OVC020
FM081900 25012KT P6SM -SHRA BKN020 BKN040
FM082200 25010KT P6SM VCSH SCT025 BKN040
FM090100 28006KT P6SM OVC050
FM090600 VRB03KT P6SM OVC050

Example: see airport list